createdAt,value
2019-03-03T00:00:13.615Z,13.90
2019-03-03T00:02:41.877Z,14.73
2019-03-03T00:05:10.235Z,14.73
2019-03-03T00:07:38.560Z,13.53
2019-03-03T00:10:09.423Z,17.03
2019-03-03T00:12:37.734Z,14.67
2019-03-03T00:15:08.865Z,14.10
2019-03-03T00:17:37.115Z,13.63
2019-03-03T00:20:09.157Z,14.63
2019-03-03T00:22:37.418Z,11.53
2019-03-03T00:25:07.944Z,11.60
2019-03-03T00:27:36.199Z,15.03
2019-03-03T00:30:07.806Z,17.93
2019-03-03T00:32:36.131Z,13.53
2019-03-03T00:35:05.975Z,12.17
2019-03-03T00:37:38.956Z,12.13
2019-03-03T00:40:09.945Z,11.23
2019-03-03T00:42:51.685Z,13.83
2019-03-03T00:45:27.431Z,9.70
2019-03-03T00:48:03.101Z,13.60
2019-03-03T00:50:41.899Z,11.40
2019-03-03T00:53:28.159Z,10.03
2019-03-03T00:55:58.089Z,11.33
2019-03-03T00:58:46.123Z,9.27
2019-03-03T01:01:32.127Z,10.17
2019-03-03T01:04:11.116Z,11.17
2019-03-03T01:06:44.037Z,8.23
2019-03-03T01:09:36.156Z,10.60
2019-03-03T01:12:15.001Z,10.20
2019-03-03T01:14:44.897Z,6.10
2019-03-03T01:17:29.646Z,8.13
2019-03-03T01:20:02.143Z,10.83
2019-03-03T01:22:32.090Z,8.13
2019-03-03T01:25:00.356Z,8.77
2019-03-03T01:27:28.721Z,10.87
2019-03-03T01:29:57.020Z,9.47
2019-03-03T01:32:25.290Z,7.47
2019-03-03T01:34:54.016Z,9.13
2019-03-03T01:37:22.274Z,9.00
2019-03-03T01:39:50.544Z,9.77
2019-03-03T01:42:18.818Z,9.93
2019-03-03T01:44:47.086Z,12.30
2019-03-03T01:47:15.360Z,9.03
2019-03-03T01:49:43.708Z,14.07
2019-03-03T01:52:12.005Z,11.07
2019-03-03T01:54:40.261Z,8.33
2019-03-03T01:57:08.546Z,6.47
2019-03-03T01:59:36.807Z,10.20
2019-03-03T02:02:05.053Z,6.30
2019-03-03T02:04:33.338Z,7.90
2019-03-03T02:07:01.617Z,8.27
2019-03-03T02:09:29.951Z,8.43
2019-03-03T02:11:58.225Z,10.87
2019-03-03T02:14:26.495Z,7.47
2019-03-03T02:16:54.756Z,9.17
2019-03-03T02:19:23.106Z,10.43
2019-03-03T02:21:51.376Z,8.93
2019-03-03T02:24:19.739Z,6.77
2019-03-03T02:26:47.999Z,9.33
2019-03-03T02:29:16.289Z,12.47
2019-03-03T02:31:44.620Z,9.27
2019-03-03T02:34:12.946Z,11.23
2019-03-03T02:36:41.229Z,10.47
2019-03-03T02:39:14.639Z,6.30
2019-03-03T02:41:42.944Z,13.57
2019-03-03T02:44:11.298Z,11.40
2019-03-03T02:46:39.550Z,12.47
2019-03-03T02:49:07.823Z,12.77
2019-03-03T02:51:36.181Z,10.10
2019-03-03T02:54:04.513Z,9.10
2019-03-03T02:56:32.798Z,9.53
2019-03-03T02:59:01.059Z,8.20
2019-03-03T03:01:33.965Z,10.73
2019-03-03T03:04:02.342Z,10.20
2019-03-03T03:06:35.047Z,10.20
2019-03-03T03:09:04.961Z,11.53
2019-03-03T03:11:53.103Z,7.97
2019-03-03T03:14:23.048Z,10.10
2019-03-03T03:16:53.234Z,8.97
2019-03-03T03:19:23.139Z,7.43
2019-03-03T03:21:53.155Z,8.70
2019-03-03T03:24:25.786Z,9.93
2019-03-03T03:26:55.762Z,9.40
2019-03-03T03:29:37.468Z,9.67
2019-03-03T03:32:07.405Z,11.77
2019-03-03T03:34:37.305Z,8.97
2019-03-03T03:37:07.308Z,13.27
2019-03-03T03:39:39.976Z,8.27
2019-03-03T03:42:09.971Z,12.67
2019-03-03T03:44:39.880Z,10.43
2019-03-03T03:47:09.815Z,12.10
2019-03-03T03:49:39.730Z,10.37
2019-03-03T03:52:24.760Z,7.90
2019-03-03T03:54:54.686Z,13.60
2019-03-03T03:57:24.689Z,6.73
2019-03-03T03:59:54.585Z,13.43
2019-03-03T04:02:39.144Z,13.30
2019-03-03T04:05:24.331Z,14.03
2019-03-03T04:08:06.198Z,11.17
2019-03-03T04:10:36.114Z,8.73
2019-03-03T04:13:14.627Z,12.23
2019-03-03T04:15:44.591Z,10.33
2019-03-03T04:18:14.622Z,7.70
2019-03-03T04:20:44.595Z,9.73
2019-03-03T04:23:17.521Z,10.37
2019-03-03T04:25:50.149Z,12.27
2019-03-03T04:28:22.840Z,8.53
2019-03-03T04:30:52.753Z,9.83
2019-03-03T04:33:25.411Z,7.93
2019-03-03T04:35:55.358Z,11.23
2019-03-03T04:38:31.133Z,8.63
2019-03-03T04:41:09.901Z,10.20
2019-03-03T04:43:45.619Z,10.23
2019-03-03T04:46:18.273Z,10.97
2019-03-03T04:48:51.136Z,7.37
2019-03-03T04:51:21.035Z,9.47
2019-03-03T04:54:06.933Z,7.37
2019-03-03T04:56:53.090Z,9.90
2019-03-03T04:59:28.972Z,9.17
2019-03-03T05:02:04.608Z,10.10
2019-03-03T05:04:34.609Z,12.77
2019-03-03T05:07:16.469Z,9.73
2019-03-03T05:09:46.392Z,11.87
2019-03-03T05:12:26.165Z,13.93
2019-03-03T05:15:14.272Z,6.80
2019-03-03T05:18:00.608Z,12.90
2019-03-03T05:20:30.534Z,10.83
2019-03-03T05:22:58.806Z,11.97
2019-03-03T05:25:27.118Z,8.90
2019-03-03T05:27:55.440Z,11.13
2019-03-03T05:30:23.790Z,9.13
2019-03-03T05:32:52.120Z,10.70
2019-03-03T05:35:20.407Z,9.10
2019-03-03T05:37:48.695Z,9.20
2019-03-03T05:40:16.958Z,13.40
2019-03-03T05:42:45.246Z,10.20
2019-03-03T05:45:13.536Z,11.60
2019-03-03T05:47:41.818Z,10.87
2019-03-03T05:50:10.088Z,11.53
2019-03-03T05:52:38.340Z,11.07
2019-03-03T05:55:06.780Z,6.43
2019-03-03T05:57:35.044Z,7.23
2019-03-03T06:00:04.226Z,13.93
2019-03-03T06:02:32.521Z,11.13
2019-03-03T06:05:00.758Z,9.53
2019-03-03T06:07:29.075Z,15.37
2019-03-03T06:09:57.391Z,9.17
2019-03-03T06:12:25.708Z,12.37
2019-03-03T06:14:54.096Z,14.17
2019-03-03T06:17:22.479Z,10.67
2019-03-03T06:19:50.751Z,9.40
2019-03-03T06:22:19.033Z,13.33
2019-03-03T06:24:47.293Z,11.60
2019-03-03T06:27:15.649Z,12.27
2019-03-03T06:29:43.955Z,12.23
2019-03-03T06:32:12.276Z,14.40
2019-03-03T06:34:40.580Z,8.63
2019-03-03T06:37:08.953Z,9.97
2019-03-03T06:39:37.266Z,18.90
2019-03-03T06:42:05.574Z,12.73
2019-03-03T06:44:33.833Z,9.03
2019-03-03T06:47:02.134Z,10.07
2019-03-03T06:49:30.423Z,8.07
2019-03-03T06:51:58.681Z,11.43
2019-03-03T06:54:26.995Z,10.60
2019-03-03T06:56:55.274Z,10.30
2019-03-03T06:59:23.561Z,14.20
2019-03-03T07:01:51.823Z,10.73
2019-03-03T07:04:20.126Z,12.13
2019-03-03T07:06:48.381Z,14.70
2019-03-03T07:09:16.669Z,12.20
2019-03-03T07:11:44.939Z,12.77
2019-03-03T07:14:13.253Z,11.97
2019-03-03T07:16:41.520Z,16.70
2019-03-03T07:19:09.840Z,9.63
2019-03-03T07:21:38.178Z,12.33
2019-03-03T07:24:06.481Z,15.57
2019-03-03T07:26:34.875Z,11.00
2019-03-03T07:29:03.170Z,13.47
2019-03-03T07:31:31.501Z,15.53
2019-03-03T07:33:59.813Z,11.13
2019-03-03T07:36:28.159Z,12.93
2019-03-03T07:38:56.415Z,12.53
2019-03-03T07:41:24.797Z,16.87
2019-03-03T07:43:53.034Z,9.60
2019-03-03T07:46:21.084Z,12.50
2019-03-03T07:48:49.348Z,12.17
2019-03-03T07:51:17.648Z,12.93
2019-03-03T07:53:45.912Z,12.87
2019-03-03T07:56:14.209Z,12.20
2019-03-03T07:58:42.460Z,11.10
2019-03-03T08:01:10.803Z,11.80
2019-03-03T08:03:39.136Z,8.60
2019-03-03T08:06:07.434Z,11.17
2019-03-03T08:08:35.683Z,11.10
2019-03-03T08:11:03.974Z,12.70
2019-03-03T08:13:32.333Z,12.77
2019-03-03T08:16:00.664Z,16.03
2019-03-03T08:18:28.934Z,10.80
2019-03-03T08:20:57.200Z,8.60
2019-03-03T08:23:25.475Z,12.10
2019-03-03T08:25:53.844Z,16.33
2019-03-03T08:28:22.094Z,14.03
2019-03-03T08:30:50.573Z,12.80
2019-03-03T08:33:18.839Z,13.03
2019-03-03T08:35:47.094Z,12.80
2019-03-03T08:38:15.375Z,11.27
2019-03-03T08:40:43.660Z,11.80
2019-03-03T08:43:13.601Z,11.97
2019-03-03T08:45:46.469Z,13.63
2019-03-03T08:48:19.325Z,11.80
2019-03-03T08:50:55.219Z,10.70
2019-03-03T08:53:27.891Z,10.70
2019-03-03T08:56:15.862Z,9.37
2019-03-03T08:58:48.705Z,10.80
2019-03-03T09:01:21.353Z,12.10
2019-03-03T09:03:53.948Z,8.03
2019-03-03T09:06:39.979Z,6.60
2019-03-03T09:09:25.650Z,9.67
2019-03-03T09:11:58.557Z,10.23
2019-03-03T09:14:28.549Z,11.97
2019-03-03T09:17:04.290Z,8.70
2019-03-03T09:19:37.198Z,9.20
2019-03-03T09:22:23.272Z,15.63
2019-03-03T09:25:09.480Z,8.00
2019-03-03T09:27:39.408Z,10.03
2019-03-03T09:30:19.050Z,9.13
2019-03-03T09:32:48.997Z,9.30
2019-03-03T09:35:18.954Z,7.77
2019-03-03T09:37:48.874Z,7.97
2019-03-03T09:40:34.059Z,6.53
2019-03-03T09:43:09.842Z,7.33
2019-03-03T09:45:39.727Z,10.57
2019-03-03T09:48:12.398Z,9.57
2019-03-03T09:50:45.043Z,8.30
2019-03-03T09:53:23.849Z,6.67
2019-03-03T09:56:09.848Z,10.23
2019-03-03T09:58:39.801Z,5.17
2019-03-03T10:01:09.754Z,8.73
2019-03-03T10:03:45.464Z,8.70
2019-03-03T10:06:15.382Z,5.50
2019-03-03T10:08:45.272Z,6.73
2019-03-03T10:11:15.203Z,5.17
2019-03-03T10:13:51.039Z,5.47
2019-03-03T10:16:23.873Z,4.00
2019-03-03T10:19:07.318Z,3.47
2019-03-03T10:21:50.166Z,3.57
2019-03-03T10:24:23.133Z,4.43
2019-03-03T10:26:55.879Z,4.77
2019-03-03T10:29:31.659Z,4.63
2019-03-03T10:32:16.543Z,2.70
2019-03-03T10:34:58.020Z,2.27
2019-03-03T10:37:30.748Z,3.57
2019-03-03T10:40:03.660Z,3.20
2019-03-03T10:42:39.603Z,3.23
2019-03-03T10:45:10.896Z,2.93
2019-03-03T10:47:40.997Z,5.20
2019-03-03T10:50:16.904Z,3.53
2019-03-03T10:52:46.917Z,2.70
2019-03-03T10:55:16.817Z,1.47
2019-03-03T10:57:49.558Z,3.13
2019-03-03T11:00:19.467Z,6.43
2019-03-03T11:02:49.515Z,6.17
2019-03-03T11:05:35.671Z,2.13
2019-03-03T11:08:10.120Z,2.70
2019-03-03T11:10:57.774Z,1.77
2019-03-03T11:13:42.684Z,3.53
2019-03-03T11:16:15.654Z,1.87
2019-03-03T11:18:55.825Z,2.30
2019-03-03T11:21:36.365Z,2.07
2019-03-03T11:24:18.279Z,2.63
2019-03-03T11:26:48.195Z,1.73
2019-03-03T11:29:18.123Z,4.37
2019-03-03T11:31:51.076Z,1.60
2019-03-03T11:34:26.995Z,1.97
2019-03-03T11:36:56.934Z,5.40
2019-03-03T11:39:39.047Z,1.93
2019-03-03T11:42:08.982Z,3.30
2019-03-03T11:44:56.782Z,2.63
2019-03-03T11:47:41.619Z,2.23
2019-03-03T11:50:14.515Z,3.07
2019-03-03T11:52:50.203Z,2.07
2019-03-03T11:55:29.311Z,2.03
2019-03-03T11:58:15.297Z,3.33
2019-03-03T12:00:48.180Z,2.70
2019-03-03T12:03:18.073Z,2.87
2019-03-03T12:05:57.089Z,2.53
2019-03-03T12:08:43.078Z,3.27
2019-03-03T12:11:21.859Z,5.83
2019-03-03T12:14:07.584Z,3.57
2019-03-03T12:16:40.489Z,3.83
2019-03-03T12:19:26.657Z,2.37
2019-03-03T12:21:56.638Z,3.57
2019-03-03T12:24:26.558Z,2.17
2019-03-03T12:26:59.245Z,3.03
2019-03-03T12:29:44.373Z,2.17
2019-03-03T12:32:14.278Z,2.13
2019-03-03T12:35:02.103Z,2.70
2019-03-03T12:37:32.019Z,4.00
2019-03-03T12:40:10.625Z,2.33
2019-03-03T12:42:56.535Z,1.83
2019-03-03T12:45:32.474Z,1.70
2019-03-03T12:48:07.963Z,1.67
2019-03-03T12:50:53.953Z,5.40
2019-03-03T12:53:32.689Z,2.13
2019-03-03T12:56:11.509Z,1.60
2019-03-03T12:58:44.413Z,4.13
2019-03-03T13:01:30.430Z,1.37
2019-03-03T13:04:06.249Z,2.17
2019-03-03T13:06:52.490Z,2.00
2019-03-03T13:09:22.391Z,1.87
2019-03-03T13:12:01.117Z,4.73
2019-03-03T13:14:37.216Z,2.83
2019-03-03T13:17:07.139Z,3.40
2019-03-03T13:19:39.989Z,2.93
2019-03-03T13:22:09.920Z,4.87
2019-03-03T13:24:55.909Z,2.77
2019-03-03T13:27:40.996Z,1.40
2019-03-03T13:30:16.303Z,1.23
2019-03-03T13:32:46.253Z,4.70
2019-03-03T13:35:22.157Z,3.40
2019-03-03T13:37:54.776Z,2.13
2019-03-03T13:40:30.191Z,2.00
2019-03-03T13:42:58.545Z,1.20
2019-03-03T13:45:27.996Z,1.33
2019-03-03T13:47:56.312Z,2.93
2019-03-03T13:50:24.684Z,1.50
2019-03-03T13:52:53.015Z,2.67
2019-03-03T13:55:21.308Z,2.20
2019-03-03T13:57:49.577Z,2.13
2019-03-03T14:00:20.588Z,1.20
2019-03-03T14:02:49.014Z,3.47
2019-03-03T14:05:18.755Z,1.97
2019-03-03T14:07:47.091Z,1.80
2019-03-03T14:10:15.452Z,2.30
2019-03-03T14:12:43.729Z,3.80
2019-03-03T14:15:14.464Z,1.73
2019-03-03T14:17:42.794Z,2.53
2019-03-03T14:20:14.369Z,2.17
2019-03-03T14:22:42.619Z,6.10
2019-03-03T14:25:11.157Z,2.80
2019-03-03T14:27:39.493Z,2.60
2019-03-03T14:30:13.842Z,3.13
2019-03-03T14:32:42.159Z,4.53
2019-03-03T14:35:12.229Z,4.00
2019-03-03T14:37:40.504Z,4.60
2019-03-03T14:40:14.127Z,3.10
2019-03-03T14:42:42.529Z,6.20
2019-03-03T14:45:13.062Z,4.17
2019-03-03T14:47:41.395Z,3.87
2019-03-03T14:50:12.263Z,2.53
2019-03-03T14:52:40.790Z,4.50
2019-03-03T14:55:17.306Z,3.87
2019-03-03T14:57:45.661Z,3.60
2019-03-03T15:00:27.198Z,4.23
2019-03-03T15:02:55.957Z,5.20
2019-03-03T15:05:24.334Z,4.63
2019-03-03T15:07:52.605Z,4.37
2019-03-03T15:10:20.880Z,4.17
2019-03-03T15:12:49.182Z,4.87
2019-03-03T15:15:20.453Z,5.33
2019-03-03T15:17:48.751Z,3.93
2019-03-03T15:20:17.009Z,3.17
2019-03-03T15:22:45.322Z,6.53
2019-03-03T15:25:14.752Z,4.97
2019-03-03T15:27:43.288Z,3.47
2019-03-03T15:30:19.146Z,3.70
2019-03-03T15:32:47.438Z,4.53
2019-03-03T15:35:15.857Z,4.43
2019-03-03T15:37:44.166Z,5.90
2019-03-03T15:40:23.255Z,5.43
2019-03-03T15:42:51.609Z,3.80
2019-03-03T15:45:21.631Z,3.77
2019-03-03T15:47:49.998Z,5.60
2019-03-03T15:50:19.782Z,5.40
2019-03-03T15:52:48.163Z,5.07
2019-03-03T15:55:18.233Z,3.20
2019-03-03T15:57:46.666Z,4.23
2019-03-03T16:00:18.262Z,3.67
2019-03-03T16:02:46.567Z,4.33
2019-03-03T16:05:15.568Z,3.57
2019-03-03T16:07:43.878Z,4.17
2019-03-03T16:10:21.329Z,4.43
2019-03-03T16:12:50.091Z,2.90
2019-03-03T16:15:18.454Z,4.73
2019-03-03T16:17:46.709Z,5.27
2019-03-03T16:20:24.418Z,3.60
2019-03-03T16:22:52.736Z,8.80
2019-03-03T16:25:22.484Z,5.47
2019-03-03T16:27:50.847Z,3.43
2019-03-03T16:30:22.447Z,4.13
2019-03-03T16:32:50.783Z,5.67
2019-03-03T16:35:19.171Z,6.23
2019-03-03T16:37:47.514Z,8.87
2019-03-03T16:40:23.640Z,4.40
2019-03-03T16:42:52.031Z,4.53
2019-03-03T16:45:20.517Z,6.13
2019-03-03T16:47:48.900Z,6.97
2019-03-03T16:50:21.121Z,4.67
2019-03-03T16:52:49.407Z,7.83
2019-03-03T16:55:18.608Z,8.63
2019-03-03T16:57:46.903Z,7.67
2019-03-03T17:00:22.335Z,7.63
2019-03-03T17:02:50.649Z,6.47
2019-03-03T17:05:21.402Z,6.00
2019-03-03T17:07:49.693Z,7.47
2019-03-03T17:10:17.962Z,7.87
2019-03-03T17:12:46.331Z,3.60
2019-03-03T17:15:23.751Z,6.37
2019-03-03T17:17:52.303Z,13.27
2019-03-03T17:20:20.598Z,7.60
2019-03-03T17:22:48.983Z,8.63
2019-03-03T17:25:25.058Z,7.80
2019-03-03T17:27:53.630Z,9.87
2019-03-03T17:30:23.913Z,8.57
2019-03-03T17:32:52.256Z,8.80
2019-03-03T17:35:20.557Z,5.90
2019-03-03T17:37:49.043Z,5.83
2019-03-03T17:40:24.472Z,7.80
2019-03-03T17:42:53.089Z,8.30
2019-03-03T17:45:22.342Z,10.63
2019-03-03T17:47:50.872Z,6.60
2019-03-03T17:50:21.830Z,8.70
2019-03-03T17:52:50.109Z,4.97
2019-03-03T17:55:18.448Z,7.63
2019-03-03T17:57:46.785Z,11.33
2019-03-03T18:00:18.290Z,10.03
2019-03-03T18:02:46.574Z,8.90
2019-03-03T18:05:16.283Z,7.33
2019-03-03T18:07:44.658Z,10.90
2019-03-03T18:10:13.106Z,10.13
2019-03-03T18:12:41.387Z,5.70
2019-03-03T18:15:11.802Z,9.63
2019-03-03T18:17:40.132Z,5.30
2019-03-03T18:20:16.961Z,9.27
2019-03-03T18:22:45.224Z,11.03
2019-03-03T18:25:15.482Z,9.07
2019-03-03T18:27:43.831Z,6.80
2019-03-03T18:30:22.627Z,11.67
2019-03-03T18:32:50.977Z,9.77
2019-03-03T18:35:19.266Z,12.70
2019-03-03T18:37:47.619Z,9.97
2019-03-03T18:40:17.773Z,10.33
2019-03-03T18:42:46.180Z,8.37
2019-03-03T18:45:16.331Z,11.60
2019-03-03T18:47:44.686Z,10.07
2019-03-03T18:50:21.043Z,10.50
2019-03-03T18:52:49.322Z,10.33
2019-03-03T18:55:17.598Z,11.57
2019-03-03T18:57:46.266Z,7.03
2019-03-03T19:00:22.536Z,7.37
2019-03-03T19:02:51.219Z,6.93
2019-03-03T19:05:19.569Z,8.47
2019-03-03T19:07:47.942Z,12.63
2019-03-03T19:10:18.889Z,10.00
2019-03-03T19:12:47.188Z,14.53
2019-03-03T19:15:17.414Z,12.37
2019-03-03T19:17:45.867Z,12.47
2019-03-03T19:20:19.823Z,12.63
2019-03-03T19:22:48.201Z,8.40
2019-03-03T19:25:16.601Z,15.07
2019-03-03T19:27:44.913Z,11.77
2019-03-03T19:30:26.853Z,10.00
2019-03-03T19:33:19.402Z,10.40
2019-03-03T19:35:47.698Z,11.57
2019-03-03T19:38:16.076Z,10.47
2019-03-03T19:40:44.371Z,12.17
2019-03-03T19:43:12.643Z,11.93
2019-03-03T19:45:49.311Z,9.90
2019-03-03T19:48:17.667Z,12.00
2019-03-03T19:50:46.022Z,10.70
2019-03-03T19:53:14.701Z,10.17
2019-03-03T19:55:42.973Z,11.83
2019-03-03T19:58:11.320Z,14.70
2019-03-03T20:00:41.092Z,11.80
2019-03-03T20:03:09.548Z,14.53
2019-03-03T20:05:37.853Z,10.53
2019-03-03T20:08:06.394Z,14.60
2019-03-03T20:10:34.947Z,11.90
2019-03-03T20:13:03.233Z,9.90
2019-03-03T20:15:31.602Z,8.70
2019-03-03T20:17:59.877Z,10.70
2019-03-03T20:20:28.170Z,11.50
2019-03-03T20:22:56.495Z,14.23
2019-03-03T20:25:24.927Z,10.23
2019-03-03T20:27:53.173Z,11.83
2019-03-03T20:30:22.617Z,10.80
2019-03-03T20:32:50.930Z,12.23
2019-03-03T20:35:19.205Z,9.93
2019-03-03T20:37:47.488Z,9.03
2019-03-03T20:40:20.623Z,14.63
2019-03-03T20:42:48.958Z,11.97
2019-03-03T20:45:28.397Z,12.93
2019-03-03T20:47:56.706Z,8.37
2019-03-03T20:50:25.018Z,9.10
2019-03-03T20:52:53.303Z,8.97
2019-03-03T20:55:31.377Z,8.90
2019-03-03T20:57:59.696Z,10.67
2019-03-03T21:00:28.758Z,10.87
2019-03-03T21:02:57.183Z,8.30
2019-03-03T21:05:25.448Z,9.87
2019-03-03T21:07:53.777Z,7.97
2019-03-03T21:10:24.642Z,10.20
2019-03-03T21:12:52.933Z,9.90
2019-03-03T21:15:21.235Z,7.20
2019-03-03T21:17:49.637Z,8.70
2019-03-03T21:20:21.490Z,7.90
2019-03-03T21:22:49.810Z,9.23
2019-03-03T21:25:18.760Z,7.87
2019-03-03T21:27:47.226Z,5.73
2019-03-03T21:30:26.393Z,5.67
2019-03-03T21:32:54.773Z,9.80
2019-03-03T21:35:23.083Z,7.80
2019-03-03T21:37:51.359Z,4.87
2019-03-03T21:40:23.400Z,7.20
2019-03-03T21:42:51.686Z,6.17
2019-03-03T21:45:22.254Z,7.10
2019-03-03T21:47:50.530Z,5.00
2019-03-03T21:50:29.309Z,7.17
2019-03-03T21:52:57.612Z,9.57
2019-03-03T21:55:25.921Z,6.23
2019-03-03T21:57:54.220Z,6.17
2019-03-03T22:00:27.712Z,5.93
2019-03-03T22:02:56.021Z,5.30
2019-03-03T22:05:24.310Z,6.13
2019-03-03T22:07:52.593Z,7.13
2019-03-03T22:10:22.490Z,6.90
2019-03-03T22:12:50.767Z,6.07
2019-03-03T22:15:19.048Z,4.87
2019-03-03T22:17:47.385Z,8.40
2019-03-03T22:20:15.692Z,6.30
2019-03-03T22:22:43.932Z,5.33
2019-03-03T22:25:12.383Z,6.27
2019-03-03T22:27:40.679Z,5.37
2019-03-03T22:30:14.947Z,4.67
2019-03-03T22:32:43.221Z,6.40
2019-03-03T22:35:11.511Z,4.90
2019-03-03T22:37:39.787Z,6.00
2019-03-03T22:40:14.312Z,5.83
2019-03-03T22:42:42.576Z,6.87
2019-03-03T22:45:13.475Z,7.37
2019-03-03T22:47:41.784Z,4.30
2019-03-03T22:50:14.375Z,6.93
2019-03-03T22:52:42.702Z,4.10
2019-03-03T22:55:13.278Z,3.67
2019-03-03T22:57:41.538Z,3.80
2019-03-03T23:00:26.433Z,4.80
2019-03-03T23:02:54.782Z,5.10
2019-03-03T23:05:26.355Z,3.67
2019-03-03T23:07:57.926Z,3.47
2019-03-03T23:10:29.498Z,5.10
2019-03-03T23:13:09.882Z,8.10
2019-03-03T23:15:47.265Z,4.33
2019-03-03T23:18:27.724Z,3.40
2019-03-03T23:21:18.737Z,5.30
2019-03-03T23:23:58.982Z,4.80
2019-03-03T23:26:27.257Z,6.53
2019-03-03T23:28:55.563Z,4.23
2019-03-03T23:31:23.912Z,2.80
2019-03-03T23:33:52.183Z,5.87
2019-03-03T23:36:23.510Z,6.63
2019-03-03T23:38:51.776Z,4.13
2019-03-03T23:41:20.070Z,2.57
2019-03-03T23:43:48.329Z,4.60
2019-03-03T23:46:16.642Z,7.67
2019-03-03T23:48:44.966Z,7.23
2019-03-03T23:51:13.312Z,7.03
2019-03-03T23:53:41.645Z,4.53
2019-03-03T23:56:09.977Z,6.53
2019-03-03T23:58:38.365Z,6.83
